State Game Lodge, SD

7:40 AM MDT on March 23, 2017 (GMT -0600)
MCSPS2 | | Change Station

Elev 4047 ft 43.73 °N, 103.35 °W | Updated 1 hour ago

Mostly Cloudy
Mostly Cloudy
43.0 °F
Feels Like 43.0 °F
N
2.0
Wind Variable Wind from WSW

Today
High -- | Low -- °F
--% Chance of Precip.
Yesterday
High -- | Low -- °F
Precip. -- in
Pressure 29.59 in
Visibility 10.0 miles
Clouds Mostly Cloudy 11000 ft
Dew Point 37.0 °F
Humidity 79%
Rainfall in
Snow Depth Not available.
6:50 AM 7:09 PM
Waning Crescent, 23% visible
METAR KCUT 231253Z AUTO 36005KT 10SM BKN110 06/01 A2968 RMK AO2 SLP018 T00610011
Pressure 29.59 in
Visibility 10.0 miles
Clouds Mostly Cloudy 11000 ft
Dew Point 37.0 °F
Humidity 79%
Rainfall in
Snow Depth Not available.
6:50 AM 7:09 PM
Waning Crescent, 23% visible
METAR KCUT 231253Z AUTO 36005KT 10SM BKN110 06/01 A2968 RMK AO2 SLP018 T00610011

Get Severe Weather Alerts

Thanks for signing up!

Be on the lookout for a verification email in your inbox.

You'll start receiving the daily forecast at 8 AM.

×

10-Day Weather Forecast

Almanac

Astronomy

Mar. 23, 2017 Rise Set
Actual Time
Civil Twilight
Nautical Twilight
Astronomical Twilight
Moon
Length of Visible Light
Length of Day
Tomorrow will be .
, % of the Moon is Illuminated

Today's Extremes

State Highs State Lows

Community

WunderPhotos

Upload Photos

1,962,540 photos uploaded!

WunderBlog® & News

Nearby

Air Quality

  Air Quality AQ Index Pollutant
Not available.

Snow Depth

Station Depth Elevation

Earthquake Activity

City Distance Mag. Time & Date
Minimum magnitude displayed is 2.5.

Earthquake Activity

City Distance Mag. Time & Date
Minimum magnitude displayed is 2.5.

Coastal Water Temperatures

Place Temperature

Stations

Nearby Weather Stations

Station Location Temp. Windchill Dew Point Humidity Wind Precip. Elev Updated Type
                   

Watches & Warnings

There are currently no watches in effect.